createdAt,value
2019-04-23T00:00:04.959Z,95.10
2019-04-23T00:02:39.367Z,95.70
2019-04-23T00:05:13.147Z,95.80
2019-04-23T00:10:19.055Z,96.90
2019-04-23T00:15:10.468Z,97.20
2019-04-23T00:17:42.583Z,97.80
2019-04-23T00:20:14.369Z,98.50
2019-04-23T00:22:55.150Z,98.60
2019-04-23T00:25:43.677Z,98.80
2019-04-23T00:28:10.089Z,99.60
2019-04-23T00:33:05.571Z,99.90
2019-04-23T00:35:33.914Z,99.90
2019-04-23T00:38:06.075Z,99.90
2019-04-23T00:43:09.021Z,99.90
2019-04-23T00:45:39.908Z,99.90
2019-04-23T00:48:15.448Z,99.90
2019-04-23T00:50:44.838Z,99.90
2019-04-23T00:53:12.688Z,99.90
2019-04-23T00:55:46.611Z,99.90
2019-04-23T00:58:12.833Z,99.90
2019-04-23T01:00:51.456Z,99.90
2019-04-23T01:03:15.430Z,99.90
2019-04-23T01:05:43.391Z,99.90
2019-04-23T01:10:57.200Z,99.90
2019-04-23T01:13:31.549Z,99.90
2019-04-23T01:15:57.800Z,99.90
2019-04-23T01:18:38.034Z,99.90
2019-04-23T01:20:53.499Z,99.90
2019-04-23T01:23:15.749Z,99.90
2019-04-23T01:25:58.820Z,99.90
2019-04-23T01:28:53.703Z,99.90
2019-04-23T01:31:20.184Z,99.90
2019-04-23T01:34:11.113Z,99.90
2019-04-23T01:36:33.284Z,99.90
2019-04-23T01:39:09.347Z,99.90
2019-04-23T01:41:20.643Z,99.90
2019-04-23T01:46:21.739Z,99.90
2019-04-23T01:48:51.902Z,99.90
2019-04-23T01:51:25.928Z,99.90
2019-04-23T01:53:54.864Z,99.90
2019-04-23T01:56:25.998Z,99.90
2019-04-23T02:01:25.560Z,99.90
2019-04-23T02:06:28.179Z,99.90
2019-04-23T02:09:00.544Z,99.90
2019-04-23T02:11:25.645Z,99.90
2019-04-23T02:13:55.333Z,99.90
2019-04-23T02:16:36.138Z,99.90
2019-04-23T02:19:22.134Z,99.90
2019-04-23T02:21:59.631Z,99.90
2019-04-23T02:24:33.766Z,99.90
2019-04-23T02:27:03.654Z,99.90
2019-04-23T02:29:44.645Z,99.90
2019-04-23T02:34:57.628Z,99.90
2019-04-23T02:37:14.353Z,99.90
2019-04-23T02:42:28.614Z,99.90
2019-04-23T02:44:38.828Z,99.90
2019-04-23T02:52:18.306Z,99.90
2019-04-23T02:54:58.651Z,99.90
2019-04-23T02:57:32.667Z,99.90
2019-04-23T03:02:36.730Z,99.90
2019-04-23T03:05:11.171Z,99.90
2019-04-23T03:07:32.969Z,99.90
2019-04-23T03:10:01.844Z,99.90
2019-04-23T03:12:35.667Z,99.90
2019-04-23T03:15:43.659Z,99.90
2019-04-23T03:21:11.652Z,99.90
2019-04-23T03:23:42.722Z,99.90
2019-04-23T03:26:45.421Z,99.90
2019-04-23T03:28:57.464Z,99.90
2019-04-23T03:41:29.553Z,99.90
2019-04-23T03:44:09.294Z,99.90
2019-04-23T03:48:54.887Z,99.90
2019-04-23T03:51:40.395Z,99.90
2019-04-23T03:54:16.273Z,99.90
2019-04-23T03:56:44.862Z,99.90
2019-04-23T04:01:46.309Z,99.90
2019-04-23T04:09:13.315Z,99.90
2019-04-23T04:14:18.228Z,99.90
2019-04-23T04:16:34.191Z,99.90
2019-04-23T04:19:06.148Z,99.90
2019-04-23T04:21:36.402Z,99.90
2019-04-23T04:26:46.834Z,99.90
2019-04-23T04:29:11.195Z,99.90
2019-04-23T04:31:42.990Z,99.90
2019-04-23T04:39:00.663Z,99.90
2019-04-23T04:41:40.501Z,99.90
2019-04-23T04:44:26.397Z,99.90
2019-04-23T04:46:39.842Z,99.90
2019-04-23T04:51:51.565Z,99.90
2019-04-23T05:01:52.236Z,99.90
2019-04-23T05:04:26.896Z,99.90
2019-04-23T05:12:14.342Z,99.90
2019-04-23T05:14:45.605Z,99.90
2019-04-23T05:17:13.382Z,99.90
2019-04-23T05:19:53.375Z,99.90
2019-04-23T05:22:36.133Z,99.90
2019-04-23T05:24:55.446Z,99.90
2019-04-23T05:27:27.565Z,99.90
2019-04-23T05:30:02.868Z,99.90
2019-04-23T05:32:26.477Z,99.90
2019-04-23T05:34:56.988Z,99.90
2019-04-23T05:37:40.052Z,99.90
2019-04-23T05:39:56.716Z,99.90
2019-04-23T05:42:30.069Z,99.90
2019-04-23T05:45:02.913Z,99.90
2019-04-23T05:47:34.039Z,99.90
2019-04-23T05:52:52.772Z,99.90
2019-04-23T05:55:26.926Z,99.90
2019-04-23T05:58:22.170Z,99.90
2019-04-23T06:01:05.811Z,99.90
2019-04-23T06:06:21.178Z,99.90
2019-04-23T06:08:49.336Z,99.90
2019-04-23T06:11:18.577Z,99.90
2019-04-23T06:13:55.461Z,99.90
2019-04-23T06:16:22.191Z,99.90
2019-04-23T06:21:15.663Z,99.90
2019-04-23T06:23:56.181Z,99.90
2019-04-23T06:28:51.828Z,99.90
2019-04-23T06:31:24.501Z,99.90
2019-04-23T06:34:12.537Z,99.90
2019-04-23T06:36:46.543Z,99.90
2019-04-23T06:39:17.720Z,99.90
2019-04-23T06:41:50.064Z,99.90
2019-04-23T06:49:33.768Z,99.90
2019-04-23T06:54:47.729Z,99.90
2019-04-23T06:57:17.992Z,99.90
2019-04-23T06:59:41.423Z,99.90
2019-04-23T07:05:03.441Z,99.90
2019-04-23T07:07:39.547Z,99.90
2019-04-23T07:09:43.934Z,99.90
2019-04-23T07:12:15.129Z,99.90
2019-04-23T07:14:52.634Z,99.90
2019-04-23T07:17:13.469Z,99.90
2019-04-23T07:19:46.744Z,99.90
2019-04-23T07:22:23.740Z,99.90
2019-04-23T07:24:52.791Z,99.90
2019-04-23T07:27:25.754Z,99.90
2019-04-23T07:30:03.845Z,99.90
2019-04-23T07:32:29.004Z,99.90
2019-04-23T07:37:32.084Z,99.90
2019-04-23T07:40:24.494Z,99.90
2019-04-23T07:42:50.067Z,99.90
2019-04-23T07:45:35.063Z,99.90
2019-04-23T07:55:51.324Z,99.90
2019-04-23T07:58:22.239Z,99.90
2019-04-23T08:00:54.019Z,99.90
2019-04-23T08:03:21.872Z,99.90
2019-04-23T08:05:42.507Z,99.90
2019-04-23T08:08:33.281Z,99.90
2019-04-23T08:11:19.909Z,99.90
2019-04-23T08:13:42.410Z,99.90
2019-04-23T08:16:21.855Z,99.90
2019-04-23T08:18:45.556Z,99.90
2019-04-23T08:21:09.845Z,99.90
2019-04-23T08:24:02.233Z,99.90
2019-04-23T08:26:50.194Z,99.90
2019-04-23T08:29:19.886Z,99.60
2019-04-23T08:32:12.205Z,99.90
2019-04-23T08:34:38.930Z,99.80
2019-04-23T08:39:32.197Z,98.40
2019-04-23T08:42:21.752Z,96.60
2019-04-23T08:44:39.601Z,97.50
2019-04-23T08:49:44.214Z,96.10
2019-04-23T08:52:14.723Z,96.60
2019-04-23T08:57:14.500Z,96.10
2019-04-23T08:59:43.856Z,97.40
2019-04-23T09:02:25.593Z,94.50
2019-04-23T09:04:50.245Z,96.00
2019-04-23T09:09:45.534Z,93.70
2019-04-23T09:12:18.543Z,93.60
2019-04-23T09:14:48.637Z,94.40
2019-04-23T09:19:53.118Z,95.10
2019-04-23T09:22:25.161Z,92.70
2019-04-23T09:24:47.106Z,93.70
2019-04-23T09:27:22.524Z,92.30
2019-04-23T09:29:58.686Z,93.60
2019-04-23T09:32:38.499Z,93.40
2019-04-23T09:35:08.638Z,93.00
2019-04-23T09:37:47.188Z,92.60
2019-04-23T09:40:28.513Z,91.50
2019-04-23T09:42:56.058Z,91.40
2019-04-23T09:45:38.957Z,89.20
2019-04-23T09:50:29.918Z,87.70
2019-04-23T09:53:09.664Z,87.20
2019-04-23T10:00:36.186Z,88.00
2019-04-23T10:02:47.331Z,87.30
2019-04-23T10:05:14.115Z,87.10
2019-04-23T10:08:02.909Z,86.50
2019-04-23T10:10:22.733Z,85.10
2019-04-23T10:12:51.713Z,80.60
2019-04-23T10:15:27.888Z,81.90
2019-04-23T10:17:52.123Z,84.20
2019-04-23T10:20:22.516Z,80.40
2019-04-23T10:22:52.611Z,78.60
2019-04-23T10:25:22.811Z,75.50
2019-04-23T10:27:56.960Z,74.00
2019-04-23T10:30:23.763Z,72.30
2019-04-23T10:32:53.618Z,70.30
2019-04-23T10:35:36.563Z,73.20
2019-04-23T10:38:02.092Z,70.40
2019-04-23T10:40:31.448Z,69.00
2019-04-23T10:42:56.003Z,71.70
2019-04-23T10:45:57.196Z,70.10
2019-04-23T10:51:28.574Z,66.80
2019-04-23T10:54:03.483Z,71.80
2019-04-23T10:56:18.462Z,68.90
2019-04-23T10:58:38.311Z,69.10
2019-04-23T11:01:14.955Z,68.90
2019-04-23T11:04:02.283Z,68.40
2019-04-23T11:08:40.592Z,68.50
2019-04-23T11:11:24.144Z,67.20
2019-04-23T11:13:53.114Z,68.80
2019-04-23T11:16:46.021Z,70.70
2019-04-23T11:18:56.717Z,70.20
2019-04-23T11:21:28.324Z,71.70
2019-04-23T11:24:01.888Z,71.50
2019-04-23T11:26:29.887Z,71.90
2019-04-23T11:28:50.336Z,75.40
2019-04-23T11:34:01.685Z,68.70
2019-04-23T11:41:34.887Z,66.50
2019-04-23T11:44:02.329Z,66.90
2019-04-23T11:49:20.626Z,65.90
2019-04-23T11:51:51.374Z,66.40
2019-04-23T11:54:01.503Z,66.90
2019-04-23T11:59:06.949Z,64.00
2019-04-23T12:01:47.758Z,65.40
2019-04-23T12:06:51.095Z,66.30
2019-04-23T12:09:31.441Z,63.80
2019-04-23T12:14:37.471Z,64.50
2019-04-23T12:17:09.678Z,66.00
2019-04-23T12:22:01.071Z,64.50
2019-04-23T12:27:00.424Z,63.30
2019-04-23T12:29:33.157Z,64.80
2019-04-23T12:32:39.890Z,65.10
2019-04-23T12:37:32.720Z,63.30
2019-04-23T12:39:49.455Z,64.00
2019-04-23T12:42:46.419Z,63.50
2019-04-23T12:44:58.067Z,62.60
2019-04-23T12:47:38.145Z,61.90
2019-04-23T12:52:26.765Z,59.20
2019-04-23T12:55:10.183Z,60.30
2019-04-23T13:00:03.023Z,63.00
2019-04-23T13:02:33.097Z,60.00
2019-04-23T13:04:51.783Z,63.70
2019-04-23T13:07:33.564Z,60.70
2019-04-23T13:10:01.613Z,59.80
2019-04-23T13:17:44.577Z,60.30
2019-04-23T13:22:43.013Z,60.50
2019-04-23T13:25:21.153Z,59.70
2019-04-23T13:27:57.265Z,59.50
2019-04-23T13:30:25.390Z,58.90
2019-04-23T13:32:56.344Z,59.10
2019-04-23T13:37:59.313Z,59.20
2019-04-23T13:40:24.446Z,58.40
2019-04-23T13:45:51.220Z,59.60
2019-04-23T13:48:03.075Z,63.40
2019-04-23T13:50:37.177Z,61.50
2019-04-23T13:55:14.691Z,59.40
2019-04-23T13:58:09.187Z,58.70
2019-04-23T14:00:39.030Z,59.30
2019-04-23T14:03:11.202Z,58.80
2019-04-23T14:05:28.190Z,58.70
2019-04-23T14:07:59.729Z,59.80
2019-04-23T14:13:16.902Z,59.20
2019-04-23T14:15:47.916Z,60.10
2019-04-23T14:23:13.036Z,59.20
2019-04-23T14:25:50.606Z,59.10
2019-04-23T14:28:22.154Z,57.90
2019-04-23T14:30:50.093Z,59.70
2019-04-23T14:33:17.494Z,59.30
2019-04-23T14:35:47.842Z,59.90
2019-04-23T14:43:30.875Z,60.30
2019-04-23T14:46:12.093Z,60.10
2019-04-23T14:48:28.025Z,59.30
2019-04-23T14:51:02.620Z,60.00
2019-04-23T14:53:26.898Z,61.20
2019-04-23T14:58:31.460Z,60.80
2019-04-23T15:01:16.227Z,61.40
2019-04-23T15:03:40.372Z,60.30
2019-04-23T15:06:12.357Z,59.90
2019-04-23T15:08:39.791Z,60.40
2019-04-23T15:13:39.488Z,61.60
2019-04-23T15:16:16.934Z,60.40
2019-04-23T15:18:53.750Z,61.50
2019-04-23T15:28:30.308Z,61.00
2019-04-23T15:41:25.463Z,61.40
2019-04-23T15:43:57.030Z,61.50
2019-04-23T15:46:26.805Z,62.30
2019-04-23T15:49:01.507Z,61.60
2019-04-23T15:54:00.740Z,62.50
2019-04-23T15:56:37.106Z,63.70
2019-04-23T16:01:40.354Z,63.20
2019-04-23T16:04:01.369Z,63.30
2019-04-23T16:06:33.126Z,64.40
2019-04-23T16:09:28.094Z,64.50
2019-04-23T16:11:51.735Z,64.20
2019-04-23T16:14:32.526Z,64.60
2019-04-23T16:19:45.898Z,64.40
2019-04-23T16:22:24.827Z,64.80
2019-04-23T16:24:48.726Z,65.30
2019-04-23T16:27:11.130Z,66.90
2019-04-23T16:30:10.421Z,66.10
2019-04-23T16:32:33.106Z,66.00
2019-04-23T16:34:38.848Z,66.80
2019-04-23T16:39:58.069Z,68.10
2019-04-23T16:42:27.688Z,69.00
2019-04-23T16:47:24.000Z,68.90
2019-04-23T16:50:05.017Z,70.10
2019-04-23T16:57:35.471Z,72.20
2019-04-23T17:00:15.155Z,74.10
2019-04-23T17:02:28.022Z,74.40
2019-04-23T17:05:02.836Z,73.80
2019-04-23T17:07:25.603Z,74.80
2019-04-23T17:12:21.092Z,75.20
2019-04-23T17:15:03.388Z,76.20
2019-04-23T17:17:25.209Z,76.00
2019-04-23T17:22:31.279Z,76.20
2019-04-23T17:30:04.853Z,76.70
2019-04-23T17:32:28.337Z,76.70
2019-04-23T17:35:11.615Z,77.30
2019-04-23T17:37:41.000Z,76.70
2019-04-23T17:40:25.534Z,76.00
2019-04-23T17:42:44.652Z,76.10
2019-04-23T17:45:30.936Z,75.40
2019-04-23T17:48:13.151Z,75.70
2019-04-23T17:53:30.119Z,74.10
2019-04-23T17:56:01.579Z,75.00
2019-04-23T17:58:23.315Z,75.20
2019-04-23T18:01:05.538Z,76.10
2019-04-23T18:03:30.139Z,77.20
2019-04-23T18:08:52.898Z,78.40
2019-04-23T18:11:20.812Z,80.20
2019-04-23T18:14:00.534Z,81.70
2019-04-23T18:19:12.662Z,80.30
2019-04-23T18:21:41.091Z,80.40
2019-04-23T18:24:16.830Z,80.00
2019-04-23T18:26:53.225Z,80.50
2019-04-23T18:29:34.330Z,80.20
2019-04-23T18:32:13.001Z,81.10
2019-04-23T18:34:56.941Z,81.80
2019-04-23T18:37:11.732Z,81.70
2019-04-23T18:39:47.101Z,82.30
2019-04-23T18:42:18.933Z,82.10
2019-04-23T18:47:15.321Z,83.10
2019-04-23T18:49:45.269Z,83.60
2019-04-23T18:52:20.992Z,84.00
2019-04-23T18:54:40.734Z,84.60
2019-04-23T18:57:12.958Z,85.80
2019-04-23T18:59:55.126Z,86.40
2019-04-23T19:02:38.825Z,87.40
2019-04-23T19:05:15.404Z,87.90
2019-04-23T19:10:32.043Z,89.40
2019-04-23T19:13:07.197Z,90.00
2019-04-23T19:15:36.530Z,90.80
2019-04-23T19:17:56.617Z,90.80
2019-04-23T19:20:55.695Z,91.10
2019-04-23T19:23:25.549Z,91.30
2019-04-23T19:28:30.723Z,92.10
2019-04-23T19:33:22.420Z,92.40
2019-04-23T19:36:05.026Z,92.90
2019-04-23T19:38:20.594Z,93.30
2019-04-23T19:40:51.868Z,93.80
2019-04-23T19:43:19.519Z,94.60
2019-04-23T19:45:55.687Z,95.00
2019-04-23T19:48:25.305Z,95.20
2019-04-23T19:50:57.321Z,95.50
2019-04-23T19:53:26.100Z,96.20
2019-04-23T19:56:04.443Z,96.80
2019-04-23T19:58:34.670Z,96.90
2019-04-23T20:01:12.034Z,97.60
2019-04-23T20:03:48.691Z,97.70
2019-04-23T20:06:08.165Z,98.40
2019-04-23T20:08:33.978Z,98.70
2019-04-23T20:10:57.456Z,98.70
2019-04-23T20:13:30.659Z,99.00
2019-04-23T20:18:42.789Z,99.90
2019-04-23T20:23:51.084Z,99.90
2019-04-23T20:26:13.469Z,99.90
2019-04-23T20:29:16.225Z,99.90
2019-04-23T20:36:49.228Z,99.90
2019-04-23T20:39:25.012Z,99.90
2019-04-23T20:42:08.949Z,99.90
2019-04-23T20:44:39.157Z,99.90
2019-04-23T20:47:05.707Z,99.90
2019-04-23T20:49:40.751Z,99.90
2019-04-23T20:52:04.796Z,99.90
2019-04-23T20:54:42.296Z,99.90
2019-04-23T20:57:35.672Z,99.90
2019-04-23T20:59:57.178Z,99.90
2019-04-23T21:08:33.196Z,99.90
2019-04-23T21:10:58.455Z,99.90
2019-04-23T21:13:47.393Z,99.90
2019-04-23T21:18:55.391Z,99.90
2019-04-23T21:21:55.161Z,99.90
2019-04-23T21:24:07.261Z,99.90
2019-04-23T21:26:49.900Z,99.90
2019-04-23T21:29:17.451Z,99.90
2019-04-23T21:31:51.747Z,99.90
2019-04-23T21:34:21.231Z,99.90
2019-04-23T21:36:46.345Z,99.90
2019-04-23T21:42:07.521Z,99.90
2019-04-23T21:44:45.623Z,99.90
2019-04-23T21:47:01.301Z,99.90
2019-04-23T21:52:17.127Z,99.90
2019-04-23T21:54:39.131Z,99.90
2019-04-23T21:57:02.429Z,99.90
2019-04-23T21:59:35.255Z,99.90
2019-04-23T22:02:03.993Z,99.90
2019-04-23T22:07:12.013Z,99.90
2019-04-23T22:09:46.333Z,99.90
2019-04-23T22:12:08.459Z,99.90
2019-04-23T22:14:40.035Z,99.90
2019-04-23T22:17:10.264Z,99.90
2019-04-23T22:19:38.684Z,99.90
2019-04-23T22:22:01.144Z,99.90
2019-04-23T22:24:42.806Z,99.90
2019-04-23T22:27:13.293Z,99.90
2019-04-23T22:29:39.087Z,99.90
2019-04-23T22:32:12.964Z,99.90
2019-04-23T22:34:46.892Z,99.90
2019-04-23T22:39:50.647Z,99.90
2019-04-23T22:42:36.332Z,99.90
2019-04-23T22:47:06.089Z,99.90
2019-04-23T22:49:55.347Z,99.90
2019-04-23T22:52:24.984Z,99.90
2019-04-23T22:57:16.966Z,99.90
2019-04-23T23:00:04.626Z,99.90
2019-04-23T23:02:44.622Z,99.90
2019-04-23T23:05:14.300Z,99.90
2019-04-23T23:07:51.167Z,99.90
2019-04-23T23:15:14.790Z,99.90
2019-04-23T23:17:51.917Z,99.90
2019-04-23T23:22:51.366Z,99.90
2019-04-23T23:25:25.605Z,99.90
2019-04-23T23:30:08.849Z,99.90
2019-04-23T23:32:53.929Z,99.90
2019-04-23T23:35:24.332Z,99.90
2019-04-23T23:37:48.128Z,99.90
2019-04-23T23:40:23.793Z,99.90
2019-04-23T23:42:58.020Z,99.90
2019-04-23T23:45:21.618Z,99.90
2019-04-23T23:47:43.367Z,99.90
2019-04-23T23:55:19.570Z,99.90
2019-04-23T23:57:50.306Z,99.90
